sensor_id;sensor_type;location;lat;lon;timestamp;P1;durP1;ratioP1;P2;durP2;ratioP2
75526;SDS011;64107;49.248;7.006;2022-10-15T00:01:50;1.60;;;1.15;;
75526;SDS011;64107;49.248;7.006;2022-10-15T00:04:16;2.10;;;1.15;;
75526;SDS011;64107;49.248;7.006;2022-10-15T00:06:42;0.85;;;0.65;;
75526;SDS011;64107;49.248;7.006;2022-10-15T00:09:08;1.25;;;1.02;;
75526;SDS011;64107;49.248;7.006;2022-10-15T00:11:34;3.45;;;1.20;;
75526;SDS011;64107;49.248;7.006;2022-10-15T00:14:00;1.17;;;0.80;;
75526;SDS011;64107;49.248;7.006;2022-10-15T00:16:27;3.38;;;1.02;;
75526;SDS011;64107;49.248;7.006;2022-10-15T00:18:57;2.50;;;1.20;;
75526;SDS011;64107;49.248;7.006;2022-10-15T00:21:23;1.52;;;1.15;;
75526;SDS011;64107;49.248;7.006;2022-10-15T00:23:49;1.60;;;1.45;;
75526;SDS011;64107;49.248;7.006;2022-10-15T00:26:17;1.50;;;1.20;;
75526;SDS011;64107;49.248;7.006;2022-10-15T00:28:51;3.05;;;1.80;;
75526;SDS011;64107;49.248;7.006;2022-10-15T00:31:18;1.02;;;0.85;;
75526;SDS011;64107;49.248;7.006;2022-10-15T00:33:48;1.50;;;0.85;;
75526;SDS011;64107;49.248;7.006;2022-10-15T00:36:16;0.82;;;0.70;;
75526;SDS011;64107;49.248;7.006;2022-10-15T00:38:47;1.27;;;0.77;;
75526;SDS011;64107;49.248;7.006;2022-10-15T00:41:15;1.00;;;0.70;;
75526;SDS011;64107;49.248;7.006;2022-10-15T00:43:44;1.45;;;0.80;;
75526;SDS011;64107;49.248;7.006;2022-10-15T00:46:31;1.38;;;0.98;;
75526;SDS011;64107;49.248;7.006;2022-10-15T00:51:42;1.90;;;1.08;;
75526;SDS011;64107;49.248;7.006;2022-10-15T00:54:10;1.95;;;0.80;;
75526;SDS011;64107;49.248;7.006;2022-10-15T00:56:38;0.55;;;0.40;;
75526;SDS011;64107;49.248;7.006;2022-10-15T00:59:05;0.85;;;0.60;;
75526;SDS011;64107;49.248;7.006;2022-10-15T01:01:32;1.65;;;0.80;;
75526;SDS011;64107;49.248;7.006;2022-10-15T01:03:58;1.45;;;0.90;;
75526;SDS011;64107;49.248;7.006;2022-10-15T01:06:25;1.27;;;0.70;;
75526;SDS011;64107;49.248;7.006;2022-10-15T01:08:51;1.50;;;0.80;;
75526;SDS011;64107;49.248;7.006;2022-10-15T01:17:05;0.75;;;0.50;;
75526;SDS011;64107;49.248;7.006;2022-10-15T01:22:29;0.25;;;0.25;;
75526;SDS011;64107;49.248;7.006;2022-10-15T01:25:14;3.15;;;0.50;;
75526;SDS011;64107;49.248;7.006;2022-10-15T01:28:30;2.85;;;0.55;;
75526;SDS011;64107;49.248;7.006;2022-10-15T01:30:57;0.47;;;0.47;;
75526;SDS011;64107;49.248;7.006;2022-10-15T01:36:17;0.40;;;0.40;;
75526;SDS011;64107;49.248;7.006;2022-10-15T01:41:28;1.27;;;0.93;;
75526;SDS011;64107;49.248;7.006;2022-10-15T01:44:15;0.50;;;0.28;;
75526;SDS011;64107;49.248;7.006;2022-10-15T01:46:47;0.63;;;0.40;;
75526;SDS011;64107;49.248;7.006;2022-10-15T01:49:23;0.30;;;0.30;;
75526;SDS011;64107;49.248;7.006;2022-10-15T01:51:51;1.23;;;0.40;;
75526;SDS011;64107;49.248;7.006;2022-10-15T01:54:18;0.35;;;0.20;;
75526;SDS011;64107;49.248;7.006;2022-10-15T01:56:46;0.40;;;0.30;;
75526;SDS011;64107;49.248;7.006;2022-10-15T01:59:17;0.10;;;0.10;;
75526;SDS011;64107;49.248;7.006;2022-10-15T02:01:46;1.10;;;0.40;;
75526;SDS011;64107;49.248;7.006;2022-10-15T02:04:16;0.50;;;0.40;;
75526;SDS011;64107;49.248;7.006;2022-10-15T02:06:44;0.60;;;0.20;;
75526;SDS011;64107;49.248;7.006;2022-10-15T02:09:15;0.50;;;0.50;;
75526;SDS011;64107;49.248;7.006;2022-10-15T02:14:42;0.63;;;0.38;;
75526;SDS011;64107;49.248;7.006;2022-10-15T02:17:15;0.82;;;0.43;;
75526;SDS011;64107;49.248;7.006;2022-10-15T02:20:03;0.17;;;0.17;;
75526;SDS011;64107;49.248;7.006;2022-10-15T02:22:32;0.20;;;0.20;;
75526;SDS011;64107;49.248;7.006;2022-10-15T02:25:05;0.30;;;0.25;;
75526;SDS011;64107;49.248;7.006;2022-10-15T02:27:36;0.28;;;0.10;;
75526;SDS011;64107;49.248;7.006;2022-10-15T02:30:03;1.75;;;0.55;;
75526;SDS011;64107;49.248;7.006;2022-10-15T02:32:33;1.40;;;0.68;;
75526;SDS011;64107;49.248;7.006;2022-10-15T02:35:01;2.60;;;0.73;;
75526;SDS011;64107;49.248;7.006;2022-10-15T02:37:28;0.70;;;0.70;;
75526;SDS011;64107;49.248;7.006;2022-10-15T02:39:55;1.30;;;0.90;;
75526;SDS011;64107;49.248;7.006;2022-10-15T02:42:21;0.88;;;0.60;;
75526;SDS011;64107;49.248;7.006;2022-10-15T02:44:47;3.70;;;1.08;;
75526;SDS011;64107;49.248;7.006;2022-10-15T02:47:13;1.10;;;0.88;;
75526;SDS011;64107;49.248;7.006;2022-10-15T02:49:39;2.70;;;1.13;;
75526;SDS011;64107;49.248;7.006;2022-10-15T02:52:05;1.88;;;1.50;;
75526;SDS011;64107;49.248;7.006;2022-10-15T02:54:32;0.73;;;0.63;;
75526;SDS011;64107;49.248;7.006;2022-10-15T02:56:58;2.65;;;1.40;;
75526;SDS011;64107;49.248;7.006;2022-10-15T02:59:24;2.33;;;1.05;;
75526;SDS011;64107;49.248;7.006;2022-10-15T03:01:50;2.63;;;1.23;;
75526;SDS011;64107;49.248;7.006;2022-10-15T03:04:16;1.45;;;0.88;;
75526;SDS011;64107;49.248;7.006;2022-10-15T03:06:42;2.08;;;1.25;;
75526;SDS011;64107;49.248;7.006;2022-10-15T03:09:08;3.00;;;1.27;;
75526;SDS011;64107;49.248;7.006;2022-10-15T03:11:34;2.10;;;1.00;;
75526;SDS011;64107;49.248;7.006;2022-10-15T03:14:01;1.08;;;0.70;;
75526;SDS011;64107;49.248;7.006;2022-10-15T03:16:27;3.38;;;1.63;;
75526;SDS011;64107;49.248;7.006;2022-10-15T03:18:53;1.42;;;1.20;;
75526;SDS011;64107;49.248;7.006;2022-10-15T03:21:19;1.60;;;1.20;;
75526;SDS011;64107;49.248;7.006;2022-10-15T03:23:45;1.38;;;1.25;;
75526;SDS011;64107;49.248;7.006;2022-10-15T03:26:11;1.20;;;1.10;;
75526;SDS011;64107;49.248;7.006;2022-10-15T03:28:38;1.75;;;1.25;;
75526;SDS011;64107;49.248;7.006;2022-10-15T03:31:04;3.95;;;1.50;;
75526;SDS011;64107;49.248;7.006;2022-10-15T03:33:30;2.17;;;1.20;;
75526;SDS011;64107;49.248;7.006;2022-10-15T03:35:56;1.65;;;1.10;;
75526;SDS011;64107;49.248;7.006;2022-10-15T03:38:22;3.33;;;1.90;;
75526;SDS011;64107;49.248;7.006;2022-10-15T03:40:48;2.90;;;1.10;;
75526;SDS011;64107;49.248;7.006;2022-10-15T03:43:14;1.20;;;0.93;;
75526;SDS011;64107;49.248;7.006;2022-10-15T03:45:40;2.65;;;1.60;;
75526;SDS011;64107;49.248;7.006;2022-10-15T03:48:06;1.17;;;0.90;;
75526;SDS011;64107;49.248;7.006;2022-10-15T03:50:33;1.95;;;0.88;;
75526;SDS011;64107;49.248;7.006;2022-10-15T03:53:01;0.85;;;0.77;;
75526;SDS011;64107;49.248;7.006;2022-10-15T03:55:28;1.80;;;0.98;;
75526;SDS011;64107;49.248;7.006;2022-10-15T03:57:54;0.73;;;0.70;;
75526;SDS011;64107;49.248;7.006;2022-10-15T04:00:20;1.88;;;0.82;;
75526;SDS011;64107;49.248;7.006;2022-10-15T04:02:46;1.80;;;1.20;;
75526;SDS011;64107;49.248;7.006;2022-10-15T04:05:12;3.00;;;1.45;;
75526;SDS011;64107;49.248;7.006;2022-10-15T04:07:38;2.47;;;1.40;;
75526;SDS011;64107;49.248;7.006;2022-10-15T04:10:04;1.70;;;1.00;;
75526;SDS011;64107;49.248;7.006;2022-10-15T04:12:31;1.02;;;0.75;;
75526;SDS011;64107;49.248;7.006;2022-10-15T04:14:57;1.17;;;0.93;;
75526;SDS011;64107;49.248;7.006;2022-10-15T04:17:23;1.00;;;0.90;;
75526;SDS011;64107;49.248;7.006;2022-10-15T04:19:49;2.42;;;1.30;;
75526;SDS011;64107;49.248;7.006;2022-10-15T04:22:15;3.30;;;0.98;;
75526;SDS011;64107;49.248;7.006;2022-10-15T04:24:41;1.73;;;1.08;;
75526;SDS011;64107;49.248;7.006;2022-10-15T04:27:07;2.40;;;1.48;;
75526;SDS011;64107;49.248;7.006;2022-10-15T04:29:33;1.50;;;1.00;;
75526;SDS011;64107;49.248;7.006;2022-10-15T04:31:59;1.48;;;1.17;;
75526;SDS011;64107;49.248;7.006;2022-10-15T04:34:25;2.20;;;1.17;;
75526;SDS011;64107;49.248;7.006;2022-10-15T04:36:52;1.73;;;1.25;;
75526;SDS011;64107;49.248;7.006;2022-10-15T04:39:18;1.85;;;1.08;;
75526;SDS011;64107;49.248;7.006;2022-10-15T04:41:45;1.98;;;1.10;;
75526;SDS011;64107;49.248;7.006;2022-10-15T04:44:11;1.70;;;1.60;;
75526;SDS011;64107;49.248;7.006;2022-10-15T04:46:37;1.23;;;0.88;;
75526;SDS011;64107;49.248;7.006;2022-10-15T04:49:03;2.28;;;1.40;;
75526;SDS011;64107;49.248;7.006;2022-10-15T04:51:29;3.55;;;1.70;;
75526;SDS011;64107;49.248;7.006;2022-10-15T04:53:55;4.30;;;1.40;;
75526;SDS011;64107;49.248;7.006;2022-10-15T04:56:21;2.65;;;1.83;;
75526;SDS011;64107;49.248;7.006;2022-10-15T04:58:48;2.47;;;1.60;;
75526;SDS011;64107;49.248;7.006;2022-10-15T05:01:16;3.28;;;1.65;;
75526;SDS011;64107;49.248;7.006;2022-10-15T05:03:44;3.60;;;1.55;;
75526;SDS011;64107;49.248;7.006;2022-10-15T05:06:13;3.47;;;1.92;;
75526;SDS011;64107;49.248;7.006;2022-10-15T05:08:40;1.77;;;1.27;;
75526;SDS011;64107;49.248;7.006;2022-10-15T05:11:08;2.60;;;1.75;;
75526;SDS011;64107;49.248;7.006;2022-10-15T05:13:35;3.00;;;1.90;;
75526;SDS011;64107;49.248;7.006;2022-10-15T05:18:37;4.60;;;2.22;;
75526;SDS011;64107;49.248;7.006;2022-10-15T05:21:03;4.18;;;2.63;;
75526;SDS011;64107;49.248;7.006;2022-10-15T05:23:29;4.80;;;3.25;;
75526;SDS011;64107;49.248;7.006;2022-10-15T05:25:59;4.47;;;2.67;;
75526;SDS011;64107;49.248;7.006;2022-10-15T05:28:26;5.50;;;3.28;;
75526;SDS011;64107;49.248;7.006;2022-10-15T05:30:52;4.22;;;2.67;;
75526;SDS011;64107;49.248;7.006;2022-10-15T05:33:18;5.95;;;3.35;;
75526;SDS011;64107;49.248;7.006;2022-10-15T05:35:44;4.18;;;3.05;;
75526;SDS011;64107;49.248;7.006;2022-10-15T05:38:10;3.97;;;2.72;;
75526;SDS011;64107;49.248;7.006;2022-10-15T05:40:37;4.13;;;2.00;;
75526;SDS011;64107;49.248;7.006;2022-10-15T05:43:03;4.53;;;3.35;;
75526;SDS011;64107;49.248;7.006;2022-10-15T05:45:29;4.47;;;3.00;;
75526;SDS011;64107;49.248;7.006;2022-10-15T05:47:55;4.57;;;3.28;;
75526;SDS011;64107;49.248;7.006;2022-10-15T05:50:21;4.57;;;2.40;;
75526;SDS011;64107;49.248;7.006;2022-10-15T05:52:47;4.88;;;2.75;;
75526;SDS011;64107;49.248;7.006;2022-10-15T05:55:14;4.72;;;2.83;;
75526;SDS011;64107;49.248;7.006;2022-10-15T05:57:40;4.32;;;2.30;;
75526;SDS011;64107;49.248;7.006;2022-10-15T06:00:06;3.55;;;2.50;;
75526;SDS011;64107;49.248;7.006;2022-10-15T06:02:32;3.33;;;2.45;;
75526;SDS011;64107;49.248;7.006;2022-10-15T06:04:58;2.83;;;2.20;;
75526;SDS011;64107;49.248;7.006;2022-10-15T06:07:24;4.30;;;2.72;;
75526;SDS011;64107;49.248;7.006;2022-10-15T06:09:51;3.03;;;2.28;;
75526;SDS011;64107;49.248;7.006;2022-10-15T06:12:17;4.78;;;2.88;;
75526;SDS011;64107;49.248;7.006;2022-10-15T06:14:43;7.25;;;3.05;;
75526;SDS011;64107;49.248;7.006;2022-10-15T06:17:09;4.40;;;2.28;;
75526;SDS011;64107;49.248;7.006;2022-10-15T06:19:35;4.13;;;2.65;;
75526;SDS011;64107;49.248;7.006;2022-10-15T06:22:02;4.07;;;2.80;;
75526;SDS011;64107;49.248;7.006;2022-10-15T06:24:28;4.20;;;2.83;;
75526;SDS011;64107;49.248;7.006;2022-10-15T06:26:54;3.95;;;3.00;;
75526;SDS011;64107;49.248;7.006;2022-10-15T06:29:21;4.57;;;2.70;;
75526;SDS011;64107;49.248;7.006;2022-10-15T06:31:47;5.65;;;2.50;;
75526;SDS011;64107;49.248;7.006;2022-10-15T06:34:13;4.13;;;3.00;;
75526;SDS011;64107;49.248;7.006;2022-10-15T06:36:40;3.90;;;2.90;;
75526;SDS011;64107;49.248;7.006;2022-10-15T06:39:06;4.20;;;2.90;;
75526;SDS011;64107;49.248;7.006;2022-10-15T06:41:32;3.95;;;2.78;;
75526;SDS011;64107;49.248;7.006;2022-10-15T06:43:58;4.63;;;2.55;;
75526;SDS011;64107;49.248;7.006;2022-10-15T06:46:24;2.95;;;2.25;;
75526;SDS011;64107;49.248;7.006;2022-10-15T06:48:50;3.70;;;2.80;;
75526;SDS011;64107;49.248;7.006;2022-10-15T06:51:17;4.32;;;2.88;;
75526;SDS011;64107;49.248;7.006;2022-10-15T06:53:43;4.93;;;2.88;;
75526;SDS011;64107;49.248;7.006;2022-10-15T06:56:09;3.88;;;2.83;;
75526;SDS011;64107;49.248;7.006;2022-10-15T06:58:35;3.75;;;2.63;;
75526;SDS011;64107;49.248;7.006;2022-10-15T07:01:01;5.10;;;3.53;;
75526;SDS011;64107;49.248;7.006;2022-10-15T07:03:28;4.88;;;3.97;;
75526;SDS011;64107;49.248;7.006;2022-10-15T07:05:54;6.60;;;4.10;;
75526;SDS011;64107;49.248;7.006;2022-10-15T07:08:20;5.38;;;3.97;;
75526;SDS011;64107;49.248;7.006;2022-10-15T07:10:48;7.00;;;3.53;;
75526;SDS011;64107;49.248;7.006;2022-10-15T07:13:14;6.82;;;3.30;;
75526;SDS011;64107;49.248;7.006;2022-10-15T07:15:40;3.55;;;2.65;;
75526;SDS011;64107;49.248;7.006;2022-10-15T07:18:08;4.50;;;3.20;;
75526;SDS011;64107;49.248;7.006;2022-10-15T07:20:34;4.35;;;3.40;;
75526;SDS011;64107;49.248;7.006;2022-10-15T07:23:00;2.95;;;2.28;;
75526;SDS011;64107;49.248;7.006;2022-10-15T07:25:27;3.28;;;2.30;;
75526;SDS011;64107;49.248;7.006;2022-10-15T07:27:53;3.88;;;2.47;;
75526;SDS011;64107;49.248;7.006;2022-10-15T07:30:20;4.93;;;2.80;;
75526;SDS011;64107;49.248;7.006;2022-10-15T07:32:47;4.28;;;2.65;;
75526;SDS011;64107;49.248;7.006;2022-10-15T07:35:13;4.82;;;2.53;;
75526;SDS011;64107;49.248;7.006;2022-10-15T07:37:39;4.10;;;3.05;;
75526;SDS011;64107;49.248;7.006;2022-10-15T07:40:05;3.75;;;3.33;;
75526;SDS011;64107;49.248;7.006;2022-10-15T07:42:32;3.10;;;2.25;;
75526;SDS011;64107;49.248;7.006;2022-10-15T07:44:58;2.33;;;2.13;;
75526;SDS011;64107;49.248;7.006;2022-10-15T07:47:24;5.20;;;3.05;;
75526;SDS011;64107;49.248;7.006;2022-10-15T07:49:50;6.80;;;3.58;;
75526;SDS011;64107;49.248;7.006;2022-10-15T07:52:16;6.18;;;3.83;;
75526;SDS011;64107;49.248;7.006;2022-10-15T07:54:42;4.18;;;2.50;;
75526;SDS011;64107;49.248;7.006;2022-10-15T07:57:08;3.13;;;2.47;;
75526;SDS011;64107;49.248;7.006;2022-10-15T07:59:34;3.40;;;2.35;;
75526;SDS011;64107;49.248;7.006;2022-10-15T08:02:00;5.28;;;3.10;;
75526;SDS011;64107;49.248;7.006;2022-10-15T08:04:26;4.93;;;2.22;;
75526;SDS011;64107;49.248;7.006;2022-10-15T08:06:53;3.00;;;2.10;;
75526;SDS011;64107;49.248;7.006;2022-10-15T08:09:19;2.10;;;1.90;;
75526;SDS011;64107;49.248;7.006;2022-10-15T08:11:45;2.75;;;1.80;;
75526;SDS011;64107;49.248;7.006;2022-10-15T08:14:11;2.70;;;1.85;;
75526;SDS011;64107;49.248;7.006;2022-10-15T08:16:37;2.97;;;1.85;;
75526;SDS011;64107;49.248;7.006;2022-10-15T08:19:03;2.42;;;1.65;;
75526;SDS011;64107;49.248;7.006;2022-10-15T08:21:29;2.67;;;1.85;;
75526;SDS011;64107;49.248;7.006;2022-10-15T08:23:55;3.47;;;2.00;;
75526;SDS011;64107;49.248;7.006;2022-10-15T08:26:21;1.85;;;1.38;;
75526;SDS011;64107;49.248;7.006;2022-10-15T08:28:47;1.52;;;1.17;;
75526;SDS011;64107;49.248;7.006;2022-10-15T08:31:14;2.13;;;1.60;;
75526;SDS011;64107;49.248;7.006;2022-10-15T08:33:42;1.52;;;1.17;;
75526;SDS011;64107;49.248;7.006;2022-10-15T08:36:10;1.63;;;1.30;;
75526;SDS011;64107;49.248;7.006;2022-10-15T08:38:36;2.03;;;1.20;;
75526;SDS011;64107;49.248;7.006;2022-10-15T08:41:03;3.75;;;1.42;;
75526;SDS011;64107;49.248;7.006;2022-10-15T08:43:41;1.42;;;1.33;;
75526;SDS011;64107;49.248;7.006;2022-10-15T08:46:09;2.55;;;1.40;;
75526;SDS011;64107;49.248;7.006;2022-10-15T08:48:44;1.55;;;1.05;;
75526;SDS011;64107;49.248;7.006;2022-10-15T08:51:14;2.05;;;1.00;;
75526;SDS011;64107;49.248;7.006;2022-10-15T08:53:44;3.78;;;1.20;;
75526;SDS011;64107;49.248;7.006;2022-10-15T08:56:18;2.78;;;1.58;;
75526;SDS011;64107;49.248;7.006;2022-10-15T08:58:55;1.33;;;1.10;;
75526;SDS011;64107;49.248;7.006;2022-10-15T09:01:53;2.20;;;1.58;;
75526;SDS011;64107;49.248;7.006;2022-10-15T09:09:47;2.97;;;1.80;;
75526;SDS011;64107;49.248;7.006;2022-10-15T09:14:50;2.80;;;1.73;;
75526;SDS011;64107;49.248;7.006;2022-10-15T09:17:19;3.13;;;2.08;;
75526;SDS011;64107;49.248;7.006;2022-10-15T09:19:48;4.18;;;2.38;;
75526;SDS011;64107;49.248;7.006;2022-10-15T09:22:17;2.67;;;1.95;;
75526;SDS011;64107;49.248;7.006;2022-10-15T09:24:45;4.10;;;2.50;;
75526;SDS011;64107;49.248;7.006;2022-10-15T09:43:44;1.40;;;1.20;;
75526;SDS011;64107;49.248;7.006;2022-10-15T09:46:15;0.98;;;0.98;;
75526;SDS011;64107;49.248;7.006;2022-10-15T09:51:36;1.42;;;1.27;;
75526;SDS011;64107;49.248;7.006;2022-10-15T09:54:30;1.77;;;1.20;;
75526;SDS011;64107;49.248;7.006;2022-10-15T09:57:00;1.17;;;1.08;;
75526;SDS011;64107;49.248;7.006;2022-10-15T09:59:26;3.53;;;1.20;;
75526;SDS011;64107;49.248;7.006;2022-10-15T10:01:56;1.75;;;0.75;;
75526;SDS011;64107;49.248;7.006;2022-10-15T10:04:28;1.60;;;0.80;;
75526;SDS011;64107;49.248;7.006;2022-10-15T10:06:56;1.50;;;0.70;;
75526;SDS011;64107;49.248;7.006;2022-10-15T10:12:01;0.80;;;0.80;;
75526;SDS011;64107;49.248;7.006;2022-10-15T10:14:36;2.42;;;1.05;;
75526;SDS011;64107;49.248;7.006;2022-10-15T10:17:25;1.40;;;1.05;;
75526;SDS011;64107;49.248;7.006;2022-10-15T10:22:41;1.80;;;0.68;;
75526;SDS011;64107;49.248;7.006;2022-10-15T10:30:35;0.88;;;0.60;;
75526;SDS011;64107;49.248;7.006;2022-10-15T10:33:23;1.52;;;1.23;;
75526;SDS011;64107;49.248;7.006;2022-10-15T10:35:52;1.27;;;0.60;;
75526;SDS011;64107;49.248;7.006;2022-10-15T10:41:07;1.73;;;0.90;;
75526;SDS011;64107;49.248;7.006;2022-10-15T10:43:35;0.60;;;0.60;;
75526;SDS011;64107;49.248;7.006;2022-10-15T10:46:15;1.35;;;0.90;;
75526;SDS011;64107;49.248;7.006;2022-10-15T10:48:43;0.75;;;0.75;;
75526;SDS011;64107;49.248;7.006;2022-10-15T10:51:18;0.65;;;0.65;;
75526;SDS011;64107;49.248;7.006;2022-10-15T10:53:47;0.55;;;0.30;;
75526;SDS011;64107;49.248;7.006;2022-10-15T10:56:34;1.40;;;0.70;;
75526;SDS011;64107;49.248;7.006;2022-10-15T10:59:08;2.50;;;0.40;;
75526;SDS011;64107;49.248;7.006;2022-10-15T11:01:41;0.30;;;0.30;;
75526;SDS011;64107;49.248;7.006;2022-10-15T11:04:13;0.75;;;0.50;;
75526;SDS011;64107;49.248;7.006;2022-10-15T11:07:02;0.50;;;0.50;;
75526;SDS011;64107;49.248;7.006;2022-10-15T11:13:29;0.40;;;0.40;;
75526;SDS011;64107;49.248;7.006;2022-10-15T11:23:47;0.50;;;0.30;;
75526;SDS011;64107;49.248;7.006;2022-10-15T11:29:22;0.77;;;0.40;;
75526;SDS011;64107;49.248;7.006;2022-10-15T11:42:57;0.40;;;0.40;;
75526;SDS011;64107;49.248;7.006;2022-10-15T11:54:04;7.32;;;0.50;;
75526;SDS011;64107;49.248;7.006;2022-10-15T11:56:44;1.40;;;0.30;;
75526;SDS011;64107;49.248;7.006;2022-10-15T11:59:18;0.40;;;0.30;;
75526;SDS011;64107;49.248;7.006;2022-10-15T12:01:54;0.63;;;0.40;;
75526;SDS011;64107;49.248;7.006;2022-10-15T12:04:55;0.30;;;0.30;;
75526;SDS011;64107;49.248;7.006;2022-10-15T12:07:34;0.98;;;0.60;;
75526;SDS011;64107;49.248;7.006;2022-10-15T12:10:06;0.65;;;0.32;;
75526;SDS011;64107;49.248;7.006;2022-10-15T12:18:00;0.82;;;0.57;;
75526;SDS011;64107;49.248;7.006;2022-10-15T12:20:34;0.98;;;0.77;;
75526;SDS011;64107;49.248;7.006;2022-10-15T12:23:01;0.55;;;0.50;;
75526;SDS011;64107;49.248;7.006;2022-10-15T12:30:29;1.63;;;1.00;;
75526;SDS011;64107;49.248;7.006;2022-10-15T12:32:58;1.23;;;0.73;;
75526;SDS011;64107;49.248;7.006;2022-10-15T12:35:36;1.13;;;0.90;;
75526;SDS011;64107;49.248;7.006;2022-10-15T12:40:58;0.40;;;0.40;;
75526;SDS011;64107;49.248;7.006;2022-10-15T12:43:29;0.57;;;0.57;;
75526;SDS011;64107;49.248;7.006;2022-10-15T12:45:58;0.73;;;0.70;;
75526;SDS011;64107;49.248;7.006;2022-10-15T12:58:47;2.13;;;0.80;;
75526;SDS011;64107;49.248;7.006;2022-10-15T13:08:56;0.65;;;0.60;;
75526;SDS011;64107;49.248;7.006;2022-10-15T13:11:48;0.88;;;0.70;;
75526;SDS011;64107;49.248;7.006;2022-10-15T13:16:50;1.33;;;1.20;;
75526;SDS011;64107;49.248;7.006;2022-10-15T13:19:18;1.45;;;1.35;;
75526;SDS011;64107;49.248;7.006;2022-10-15T13:21:55;1.60;;;1.48;;
75526;SDS011;64107;49.248;7.006;2022-10-15T13:24:24;1.17;;;1.08;;
75526;SDS011;64107;49.248;7.006;2022-10-15T13:26:51;1.02;;;1.00;;
75526;SDS011;64107;49.248;7.006;2022-10-15T13:29:20;1.00;;;0.90;;
75526;SDS011;64107;49.248;7.006;2022-10-15T13:31:47;1.17;;;1.08;;
75526;SDS011;64107;49.248;7.006;2022-10-15T13:34:23;1.70;;;1.15;;
75526;SDS011;64107;49.248;7.006;2022-10-15T13:36:55;2.72;;;1.42;;
75526;SDS011;64107;49.248;7.006;2022-10-15T13:39:30;0.73;;;0.73;;
75526;SDS011;64107;49.248;7.006;2022-10-15T13:42:14;1.10;;;0.90;;
75526;SDS011;64107;49.248;7.006;2022-10-15T13:44:42;3.05;;;1.30;;
75526;SDS011;64107;49.248;7.006;2022-10-15T13:47:23;1.83;;;1.33;;
75526;SDS011;64107;49.248;7.006;2022-10-15T13:50:10;0.80;;;0.80;;
75526;SDS011;64107;49.248;7.006;2022-10-15T13:52:48;1.42;;;1.00;;
75526;SDS011;64107;49.248;7.006;2022-10-15T13:55:29;1.02;;;0.95;;
75526;SDS011;64107;49.248;7.006;2022-10-15T13:58:01;1.95;;;1.08;;
75526;SDS011;64107;49.248;7.006;2022-10-15T14:00:33;0.70;;;0.70;;
75526;SDS011;64107;49.248;7.006;2022-10-15T14:03:13;2.15;;;1.20;;
75526;SDS011;64107;49.248;7.006;2022-10-15T14:05:42;1.27;;;1.17;;
75526;SDS011;64107;49.248;7.006;2022-10-15T14:08:17;1.13;;;0.70;;
75526;SDS011;64107;49.248;7.006;2022-10-15T14:10:45;0.70;;;0.68;;
75526;SDS011;64107;49.248;7.006;2022-10-15T14:13:12;1.25;;;1.00;;
75526;SDS011;64107;49.248;7.006;2022-10-15T14:15:39;1.40;;;1.00;;
75526;SDS011;64107;49.248;7.006;2022-10-15T14:18:06;0.80;;;0.80;;
75526;SDS011;64107;49.248;7.006;2022-10-15T14:20:32;1.20;;;0.95;;
75526;SDS011;64107;49.248;7.006;2022-10-15T14:22:59;3.85;;;1.70;;
75526;SDS011;64107;49.248;7.006;2022-10-15T14:25:25;1.60;;;1.50;;
75526;SDS011;64107;49.248;7.006;2022-10-15T14:27:51;3.40;;;1.33;;
75526;SDS011;64107;49.248;7.006;2022-10-15T14:30:26;1.10;;;0.82;;
75526;SDS011;64107;49.248;7.006;2022-10-15T14:32:56;1.95;;;1.38;;
75526;SDS011;64107;49.248;7.006;2022-10-15T14:38:00;1.90;;;1.75;;
75526;SDS011;64107;49.248;7.006;2022-10-15T14:40:28;2.30;;;2.08;;
75526;SDS011;64107;49.248;7.006;2022-10-15T14:45:39;2.20;;;2.03;;
75526;SDS011;64107;49.248;7.006;2022-10-15T14:48:17;2.88;;;1.98;;
75526;SDS011;64107;49.248;7.006;2022-10-15T14:50:47;2.08;;;1.88;;
75526;SDS011;64107;49.248;7.006;2022-10-15T14:53:25;2.33;;;1.95;;
75526;SDS011;64107;49.248;7.006;2022-10-15T14:55:57;1.52;;;1.17;;
75526;SDS011;64107;49.248;7.006;2022-10-15T15:00:56;1.35;;;1.25;;
75526;SDS011;64107;49.248;7.006;2022-10-15T15:03:30;1.23;;;1.05;;
75526;SDS011;64107;49.248;7.006;2022-10-15T15:06:04;0.95;;;0.93;;
75526;SDS011;64107;49.248;7.006;2022-10-15T15:08:30;0.95;;;0.70;;
75526;SDS011;64107;49.248;7.006;2022-10-15T15:10:58;2.95;;;1.08;;
75526;SDS011;64107;49.248;7.006;2022-10-15T15:13:27;0.80;;;0.70;;
75526;SDS011;64107;49.248;7.006;2022-10-15T15:15:54;1.33;;;1.05;;
75526;SDS011;64107;49.248;7.006;2022-10-15T15:18:21;0.50;;;0.50;;
75526;SDS011;64107;49.248;7.006;2022-10-15T15:20:47;0.77;;;0.77;;
75526;SDS011;64107;49.248;7.006;2022-10-15T15:23:17;1.20;;;1.10;;
75526;SDS011;64107;49.248;7.006;2022-10-15T15:25:47;1.42;;;0.80;;
75526;SDS011;64107;49.248;7.006;2022-10-15T15:28:14;1.17;;;0.70;;
75526;SDS011;64107;49.248;7.006;2022-10-15T15:30:44;0.38;;;0.38;;
75526;SDS011;64107;49.248;7.006;2022-10-15T15:33:12;0.75;;;0.40;;
75526;SDS011;64107;49.248;7.006;2022-10-15T15:35:46;0.77;;;0.75;;
75526;SDS011;64107;49.248;7.006;2022-10-15T15:38:17;0.50;;;0.47;;
75526;SDS011;64107;49.248;7.006;2022-10-15T15:40:44;1.35;;;0.47;;
75526;SDS011;64107;49.248;7.006;2022-10-15T15:43:11;0.98;;;0.52;;
75526;SDS011;64107;49.248;7.006;2022-10-15T15:45:38;0.65;;;0.50;;
75526;SDS011;64107;49.248;7.006;2022-10-15T15:48:04;0.77;;;0.73;;
75526;SDS011;64107;49.248;7.006;2022-10-15T15:50:30;0.60;;;0.60;;
75526;SDS011;64107;49.248;7.006;2022-10-15T15:52:56;0.60;;;0.47;;
75526;SDS011;64107;49.248;7.006;2022-10-15T15:55:23;0.80;;;0.43;;
75526;SDS011;64107;49.248;7.006;2022-10-15T15:57:49;0.77;;;0.77;;
75526;SDS011;64107;49.248;7.006;2022-10-15T16:00:15;1.15;;;0.73;;
75526;SDS011;64107;49.248;7.006;2022-10-15T16:02:42;0.68;;;0.52;;
75526;SDS011;64107;49.248;7.006;2022-10-15T16:05:09;0.77;;;0.77;;
75526;SDS011;64107;49.248;7.006;2022-10-15T16:07:38;1.13;;;0.95;;
75526;SDS011;64107;49.248;7.006;2022-10-15T16:10:04;4.28;;;0.80;;
75526;SDS011;64107;49.248;7.006;2022-10-15T16:12:33;1.45;;;0.90;;
75526;SDS011;64107;49.248;7.006;2022-10-15T16:14:59;1.92;;;1.50;;
75526;SDS011;64107;49.248;7.006;2022-10-15T16:17:25;2.03;;;1.10;;
75526;SDS011;64107;49.248;7.006;2022-10-15T16:19:52;1.65;;;1.30;;
75526;SDS011;64107;49.248;7.006;2022-10-15T16:22:18;1.15;;;0.95;;
75526;SDS011;64107;49.248;7.006;2022-10-15T16:24:44;1.58;;;1.38;;
75526;SDS011;64107;49.248;7.006;2022-10-15T16:27:10;1.40;;;1.30;;
75526;SDS011;64107;49.248;7.006;2022-10-15T16:29:36;1.67;;;1.20;;
75526;SDS011;64107;49.248;7.006;2022-10-15T16:32:02;2.05;;;1.73;;
75526;SDS011;64107;49.248;7.006;2022-10-15T16:34:28;1.60;;;1.50;;
75526;SDS011;64107;49.248;7.006;2022-10-15T16:36:55;2.03;;;1.60;;
75526;SDS011;64107;49.248;7.006;2022-10-15T16:39:21;2.63;;;1.50;;
75526;SDS011;64107;49.248;7.006;2022-10-15T16:41:47;1.92;;;1.70;;
75526;SDS011;64107;49.248;7.006;2022-10-15T16:47:36;1.83;;;1.50;;
75526;SDS011;64107;49.248;7.006;2022-10-15T16:50:02;0.98;;;0.90;;
75526;SDS011;64107;49.248;7.006;2022-10-15T16:52:28;1.30;;;1.20;;
75526;SDS011;64107;49.248;7.006;2022-10-15T16:54:54;0.60;;;0.60;;
75526;SDS011;64107;49.248;7.006;2022-10-15T16:57:20;1.50;;;1.20;;
75526;SDS011;64107;49.248;7.006;2022-10-15T16:59:46;1.75;;;1.48;;
75526;SDS011;64107;49.248;7.006;2022-10-15T17:02:12;1.42;;;1.33;;
75526;SDS011;64107;49.248;7.006;2022-10-15T17:04:38;2.40;;;1.75;;
75526;SDS011;64107;49.248;7.006;2022-10-15T17:07:05;2.40;;;1.60;;
75526;SDS011;64107;49.248;7.006;2022-10-15T17:09:31;4.07;;;1.40;;
75526;SDS011;64107;49.248;7.006;2022-10-15T17:11:57;1.30;;;0.82;;
75526;SDS011;64107;49.248;7.006;2022-10-15T17:14:23;1.35;;;1.25;;
75526;SDS011;64107;49.248;7.006;2022-10-15T17:16:50;1.90;;;1.10;;
75526;SDS011;64107;49.248;7.006;2022-10-15T17:19:20;1.77;;;1.55;;
75526;SDS011;64107;49.248;7.006;2022-10-15T17:21:48;2.28;;;1.15;;